Time;durP1;ratioP1;P1;durP2;ratioP2;P2;SDS_P1;SDS_P2;PMS_P1;PMS_P2;Temp;Humidity;BMP_temperature;BMP_pressure;BME280_temperature;BME280_humidity;BME280_pressure;Samples;Min_cycle;Max_cycle;Signal;HPM_P1;HPM_P2
2022/04/15 00:00:41;;;;;;;;;;;;;;;13.12;38.19;98388.78;1638396;87;26083;-81
2022/04/15 00:03:07;;;;;;;;;;;;;;;13.10;38.40;98390.66;1639150;87;24653;-84
2022/04/15 00:05:40;;;;;;;;;;;;;;;13.06;38.50;98391.87;1638001;87;20233;-84
2022/04/15 00:08:09;;;;;;;;;;;;;;;13.03;38.61;98398.70;1635071;87;25082;-83
2022/04/15 00:10:36;;;;;;;;;;;;;;;13.00;38.77;98401.91;1635513;86;22099;-86
2022/04/15 00:13:03;;;;;;;;;;;;;;;12.97;38.93;98399.55;1639616;87;26078;-87
2022/04/15 00:15:29;;;;;;;;;;;;;;;12.94;39.07;98394.52;1636897;87;25340;-83
2022/04/15 00:17:56;;;;;;;;;;;;;;;12.93;39.23;98392.01;1637582;87;20380;-83
2022/04/15 00:20:22;;;;;;;;;;;;;;;12.93;39.41;98393.33;1638460;87;25067;-82
2022/04/15 00:22:48;;;;;;;;;;;;;;;12.92;39.55;98392.52;1638348;87;22135;-83
2022/04/15 00:25:14;;;;;;;;;;;;;;;12.92;39.70;98395.14;1637016;87;21220;-85
2022/04/15 00:27:41;;;;;;;;;;;;;;;12.94;39.84;98392.37;1638738;87;24399;-83
2022/04/15 00:30:07;;;;;;;;;;;;;;;12.95;40.00;98389.62;1639981;87;20471;-86
2022/04/15 00:32:33;;;;;;;;;;;;;;;12.98;40.16;98393.81;1636829;87;25074;-83
2022/04/15 00:34:59;;;;;;;;;;;;;;;12.97;40.34;98389.52;1635636;87;22061;-83
2022/04/15 00:37:26;;;;;;;;;;;;;;;12.99;40.50;98390.20;1639416;87;26145;-86
2022/04/15 00:39:52;;;;;;;;;;;;;;;13.00;40.64;98390.09;1636134;87;24597;-83
2022/04/15 00:42:20;;;;;;;;;;;;;;;13.05;40.79;98392.82;1638743;87;20529;-82
2022/04/15 00:44:48;;;;;;;;;;;;;;;13.05;40.94;98387.09;1614991;87;24981;-82
2022/04/15 00:47:16;;;;;;;;;;;;;;;13.05;41.05;98384.47;1640573;86;22242;-83
2022/04/15 00:49:42;;;;;;;;;;;;;;;13.07;41.22;98387.81;1639877;87;27545;-82
2022/04/15 00:52:09;;;;;;;;;;;;;;;13.07;41.37;98383.03;1641195;87;24736;-82
2022/04/15 00:54:38;;;;;;;;;;;;;;;13.06;41.49;98380.05;1639738;87;20287;-85
2022/04/15 00:57:05;;;;;;;;;;;;;;;13.06;41.57;98382.67;1608445;88;24996;-83
2022/04/15 00:59:31;;;;;;;;;;;;;;;13.07;41.67;98379.93;1611274;88;21982;-85
2022/04/15 01:01:58;;;;;;;;;;;;;;;13.08;41.78;98380.77;1633135;87;26062;-85
2022/04/15 01:04:25;;;;;;;;;;;;;;;13.07;41.87;98383.88;1615867;88;24561;-84
2022/04/15 01:06:53;;;;;;;;;;;;;;;13.06;41.97;98375.63;1611891;87;20468;-86
2022/04/15 01:09:20;;;;;;;;;;;;;;;13.04;42.03;98381.47;1621906;88;25905;-83
2022/04/15 01:11:47;;;;;;;;;;;;;;;13.02;42.11;98387.83;1621049;86;22067;-86
2022/04/15 01:14:13;;;;;;;;;;;;;;;12.99;42.13;98388.89;1612528;88;26043;-86
2022/04/15 01:16:39;;;;;;;;;;;;;;;12.96;42.23;98390.47;1615658;87;24542;-85
2022/04/15 01:19:05;;;;;;;;;;;;;;;12.91;42.31;98390.84;1614149;88;20308;-85
2022/04/15 01:21:32;;;;;;;;;;;;;;;12.84;42.35;98388.34;1615661;88;20830;-83
2022/04/15 01:23:58;;;;;;;;;;;;;;;12.81;42.48;98384.66;1612955;88;22050;-83
2022/04/15 01:26:24;;;;;;;;;;;;;;;12.78;42.54;98382.73;1599027;88;21029;-83
2022/04/15 01:28:53;;;;;;;;;;;;;;;12.74;42.65;98389.20;1617421;87;24449;-86
2022/04/15 01:31:19;;;;;;;;;;;;;;;12.71;42.71;98399.45;1614577;88;20194;-87
2022/04/15 01:33:45;;;;;;;;;;;;;;;12.67;42.79;98399.81;1647412;86;24951;-87
2022/04/15 01:36:12;;;;;;;;;;;;;;;12.62;42.92;98398.88;1646763;85;22019;-84
2022/04/15 01:38:38;;;;;;;;;;;;;;;12.60;43.05;98400.77;1614738;88;26105;-83
2022/04/15 01:41:04;;;;;;;;;;;;;;;12.56;43.17;98404.12;1617630;87;24466;-86
2022/04/15 01:43:30;;;;;;;;;;;;;;;12.53;43.31;98405.69;1633444;87;20279;-86
2022/04/15 01:45:56;;;;;;;;;;;;;;;12.53;43.40;98411.41;1618236;87;25028;-86
2022/04/15 01:48:22;;;;;;;;;;;;;;;12.47;43.53;98404.02;1620672;88;20320;-83
2022/04/15 01:50:48;;;;;;;;;;;;;;;12.43;43.65;98400.80;1634680;87;26007;-84
2022/04/15 01:53:14;;;;;;;;;;;;;;;12.45;43.92;98399.34;1634980;87;24589;-84
2022/04/15 01:55:40;;;;;;;;;;;;;;;12.49;44.14;98406.05;1635108;87;20532;-84
2022/04/15 01:58:06;;;;;;;;;;;;;;;12.51;44.32;98401.50;1635031;87;20259;-83
2022/04/15 02:00:33;;;;;;;;;;;;;;;12.56;44.57;98404.59;1635271;87;21983;-84
2022/04/15 02:02:59;;;;;;;;;;;;;;;12.58;44.80;98402.70;1635288;87;26230;-83
2022/04/15 02:05:27;;;;;;;;;;;;;;;12.60;45.02;98396.83;1635499;87;24407;-83
2022/04/15 02:07:52;;;;;;;;;;;;;;;12.64;45.22;98390.88;1634868;87;20251;-87
2022/04/15 02:10:18;;;;;;;;;;;;;;;12.66;45.46;98392.41;1633263;87;20699;-83
2022/04/15 02:12:45;;;;;;;;;;;;;;;12.71;45.66;98388.95;1629979;88;21989;-85
2022/04/15 02:15:11;;;;;;;;;;;;;;;12.75;45.95;98395.64;1630171;88;20902;-83
2022/04/15 02:17:37;;;;;;;;;;;;;;;12.77;46.20;98404.22;1629944;88;24384;-83
2022/04/15 02:20:04;;;;;;;;;;;;;;;12.78;46.45;98405.89;1629726;88;20861;-86
2022/04/15 02:22:30;;;;;;;;;;;;;;;12.77;46.71;98413.41;1630026;88;25799;-83
2022/04/15 02:24:56;;;;;;;;;;;;;;;12.77;46.90;98412.57;1630026;88;20268;-83
2022/04/15 02:27:22;;;;;;;;;;;;;;;12.75;47.12;98404.84;1630041;88;26044;-82
2022/04/15 02:29:48;;;;;;;;;;;;;;;12.76;47.36;98410.45;1630030;88;20927;-82
2022/04/15 02:32:14;;;;;;;;;;;;;;;12.77;47.62;98404.22;1629810;88;20257;-82
2022/04/15 02:34:40;;;;;;;;;;;;;;;12.79;48.00;98408.05;1629700;88;25623;-83
2022/04/15 02:37:06;;;;;;;;;;;;;;;12.80;48.33;98414.50;1630134;88;22018;-83
2022/04/15 02:39:34;;;;;;;;;;;;;;;12.82;48.63;98406.50;1629894;88;26050;-86
2022/04/15 02:42:01;;;;;;;;;;;;;;;12.80;48.93;98415.81;1630038;88;24408;-84
2022/04/15 02:44:28;;;;;;;;;;;;;;;12.79;49.29;98415.45;1629950;88;20440;-83
2022/04/15 02:47:15;;;;;;;;;;;;;;;12.80;49.65;98418.44;1610750;89;21146;-86
2022/04/15 02:49:41;;;;;;;;;;;;;;;12.78;50.03;98419.50;1610642;88;21408;-83
2022/04/15 02:52:07;;;;;;;;;;;;;;;12.77;50.30;98413.41;1584917;89;26011;-86
2022/04/15 02:54:33;;;;;;;;;;;;;;;12.76;50.58;98407.83;1610933;89;24415;-83
2022/04/15 02:56:59;;;;;;;;;;;;;;;12.77;50.91;98408.16;1583838;90;21011;-83
2022/04/15 02:59:25;;;;;;;;;;;;;;;12.77;51.33;98415.20;1586290;90;25014;-83
2022/04/15 03:01:51;;;;;;;;;;;;;;;12.74;51.74;98414.14;1575381;90;20333;-83
2022/04/15 03:04:18;;;;;;;;;;;;;;;12.73;52.17;98421.66;1610423;88;26184;-82
2022/04/15 03:06:44;;;;;;;;;;;;;;;12.72;52.64;98424.75;1584656;90;20870;-82
2022/04/15 03:09:10;;;;;;;;;;;;;;;12.69;53.14;98428.95;1584780;90;20277;-86
2022/04/15 03:11:38;;;;;;;;;;;;;;;12.69;53.76;98443.86;1603063;89;24973;-83
2022/04/15 03:14:05;;;;;;;;;;;;;;;12.66;54.28;98448.86;1584460;90;21981;-84
2022/04/15 03:16:31;;;;;;;;;;;;;;;12.64;54.74;98453.42;1585083;90;26119;-84
2022/04/15 03:18:57;;;;;;;;;;;;;;;12.60;55.29;98449.34;1586876;90;24514;-84
2022/04/15 03:21:23;;;;;;;;;;;;;;;12.61;55.83;98454.95;1583006;90;20217;-84
2022/04/15 03:23:49;;;;;;;;;;;;;;;12.58;56.32;98455.20;1611728;89;20331;-83
2022/04/15 03:26:15;;;;;;;;;;;;;;;12.62;56.77;98461.87;1584933;90;20771;-84
2022/04/15 03:28:41;;;;;;;;;;;;;;;12.63;57.27;98469.28;1585956;90;21065;-86
2022/04/15 03:31:09;;;;;;;;;;;;;;;12.62;57.76;98467.61;1584211;90;20359;-83
2022/04/15 03:33:35;;;;;;;;;;;;;;;12.61;58.17;98470.70;1573344;91;20238;-84
2022/04/15 03:36:00;;;;;;;;;;;;;;;12.63;58.55;98464.87;1610697;89;20283;-83
2022/04/15 03:38:26;;;;;;;;;;;;;;;12.63;59.02;98467.97;1584423;90;20237;-84
2022/04/15 03:40:54;;;;;;;;;;;;;;;12.63;59.60;98474.53;1599886;88;21378;-84
2022/04/15 03:43:20;;;;;;;;;;;;;;;12.59;60.08;98468.70;1574824;90;20336;-86
2022/04/15 03:45:46;;;;;;;;;;;;;;;12.54;60.69;98471.68;1582823;88;20454;-85
2022/04/15 03:48:12;;;;;;;;;;;;;;;12.51;61.24;98470.59;1605600;88;20263;-84
2022/04/15 03:50:39;;;;;;;;;;;;;;;12.53;61.71;98467.85;1649045;86;21983;-85
2022/04/15 03:53:05;;;;;;;;;;;;;;;12.54;62.24;98474.78;1648177;86;25939;-83
2022/04/15 03:55:31;;;;;;;;;;;;;;;12.52;62.80;98479.30;1620401;88;20364;-83
2022/04/15 03:57:57;;;;;;;;;;;;;;;12.51;63.49;98477.63;1619888;88;20657;-82
2022/04/15 04:00:24;;;;;;;;;;;;;;;12.48;63.98;98473.46;1620231;88;25004;-83
2022/04/15 04:02:52;;;;;;;;;;;;;;;12.49;64.43;98471.17;1618212;88;22809;-84
2022/04/15 04:05:20;;;;;;;;;;;;;;;12.53;64.93;98475.73;1620252;87;26118;-86
2022/04/15 04:07:46;;;;;;;;;;;;;;;12.49;65.44;98469.86;1620070;88;24688;-82
2022/04/15 04:10:12;;;;;;;;;;;;;;;12.49;65.94;98468.55;1620133;87;20295;-86
2022/04/15 04:12:45;;;;;;;;;;;;;;;12.49;66.38;98466.42;1620043;88;25825;-83
2022/04/15 04:15:12;;;;;;;;;;;;;;;12.52;66.85;98469.64;1619580;88;22269;-83
2022/04/15 04:17:40;;;;;;;;;;;;;;;12.53;67.50;98479.67;1624982;87;26404;-84
2022/04/15 04:20:07;;;;;;;;;;;;;;;12.50;68.07;98485.97;1611162;88;24490;-84
2022/04/15 04:22:35;;;;;;;;;;;;;;;12.50;68.66;98485.13;1647401;86;20491;-85
2022/04/15 04:25:01;;;;;;;;;;;;;;;12.49;69.18;98488.73;1639628;86;25108;-84
2022/04/15 04:27:27;;;;;;;;;;;;;;;12.48;69.88;98496.25;1650496;86;22039;-83
2022/04/15 04:29:53;;;;;;;;;;;;;;;12.43;70.50;98504.48;1647195;87;26006;-83
2022/04/15 04:32:20;;;;;;;;;;;;;;;12.44;71.05;98506.59;1618957;88;24700;-83
2022/04/15 04:34:46;;;;;;;;;;;;;;;12.46;71.58;98509.48;1605660;88;20173;-85
2022/04/15 04:37:12;;;;;;;;;;;;;;;12.51;72.15;98506.50;1649106;86;25085;-82
2022/04/15 04:39:38;;;;;;;;;;;;;;;12.60;72.67;98504.98;1647686;86;21969;-83
2022/04/15 04:42:07;;;;;;;;;;;;;;;12.64;73.16;98505.93;1644842;86;25942;-86
2022/04/15 04:44:34;;;;;;;;;;;;;;;12.68;73.57;98503.42;1642933;87;24621;-85
2022/04/15 04:47:00;;;;;;;;;;;;;;;12.68;74.01;98498.17;1636761;87;20564;-84
2022/04/15 04:49:26;;;;;;;;;;;;;;;12.69;74.61;98500.31;1638373;87;25152;-83
2022/04/15 04:51:53;;;;;;;;;;;;;;;12.68;75.28;98499.95;1640425;87;22111;-84
2022/04/15 04:54:20;;;;;;;;;;;;;;;12.64;75.87;98494.59;1633416;87;26232;-85
2022/04/15 04:56:46;;;;;;;;;;;;;;;12.60;76.49;98488.72;1638960;87;24444;-87
2022/04/15 04:59:12;;;;;;;;;;;;;;;12.59;77.10;98476.57;1634385;87;20514;-87
2022/04/15 05:01:38;;;;;;;;;;;;;;;12.58;77.89;98464.39;1639644;87;25092;-87
2022/04/15 05:04:04;;;;;;;;;;;;;;;12.36;78.65;98460.44;1640650;87;20892;-88
2022/04/15 05:06:30;;;;;;;;;;;;;;;12.29;79.35;98444.79;1637970;87;21150;-84
2022/04/15 05:08:56;;;;;;;;;;;;;;;12.14;80.16;98433.22;1642466;86;20368;-86
2022/04/15 05:11:22;;;;;;;;;;;;;;;12.02;80.88;98438.08;1637273;87;20359;-87
2022/04/15 05:13:50;;;;;;;;;;;;;;;11.99;81.63;98437.48;1637092;87;20333;-84
2022/04/15 05:16:19;;;;;;;;;;;;;;;11.97;82.39;98432.34;1638475;87;22667;-88
2022/04/15 05:18:45;;;;;;;;;;;;;;;11.94;83.18;98414.23;1641074;87;25983;-84
2022/04/15 05:21:11;;;;;;;;;;;;;;;11.91;83.83;98422.78;1639896;87;24510;-85
2022/04/15 05:23:37;;;;;;;;;;;;;;;11.88;84.53;98447.47;1621371;88;20289;-87
2022/04/15 05:26:03;;;;;;;;;;;;;;;11.87;85.06;98467.23;1637762;87;24962;-84
2022/04/15 05:28:31;;;;;;;;;;;;;;;11.87;85.58;98477.26;1639404;87;20277;-85
2022/04/15 05:30:57;;;;;;;;;;;;;;;11.88;86.15;98478.94;1637990;87;26841;-87
2022/04/15 05:33:23;;;;;;;;;;;;;;;11.80;86.68;98506.19;1633853;86;24449;-83
2022/04/15 05:35:51;;;;;;;;;;;;;;;11.77;87.32;98504.27;1640192;86;20210;-85
2022/04/15 05:38:18;;;;;;;;;;;;;;;11.76;87.86;98498.66;1634310;86;25072;-84
2022/04/15 05:40:47;;;;;;;;;;;;;;;11.74;88.58;98508.78;1636481;86;22118;-86
2022/04/15 05:43:16;;;;;;;;;;;;;;;11.73;89.15;98509.72;1635947;86;26739;-87
2022/04/15 05:45:42;;;;;;;;;;;;;;;11.74;89.79;98488.28;1633699;86;24530;-83
2022/04/15 05:48:08;;;;;;;;;;;;;;;11.73;90.33;98486.59;1656665;86;20285;-84
2022/04/15 05:50:34;;;;;;;;;;;;;;;11.72;90.82;98479.67;1652664;86;20247;-87
2022/04/15 05:53:00;;;;;;;;;;;;;;;11.69;91.35;98475.48;1653655;86;22785;-84
2022/04/15 05:55:26;;;;;;;;;;;;;;;11.68;91.84;98459.86;1653593;86;21025;-83
2022/04/15 05:57:52;;;;;;;;;;;;;;;11.71;92.29;98468.82;1654078;86;24438;-86
2022/04/15 06:00:19;;;;;;;;;;;;;;;11.82;92.90;98473.30;1651273;85;20281;-83
2022/04/15 06:02:45;;;;;;;;;;;;;;;11.97;93.56;98474.30;1614053;88;25202;-87
2022/04/15 06:05:11;;;;;;;;;;;;;;;12.05;94.06;98473.74;1627461;86;21977;-87
2022/04/15 06:07:40;;;;;;;;;;;;;;;12.06;94.36;98471.45;1624187;88;27080;-84
2022/04/15 06:10:06;;;;;;;;;;;;;;;12.14;94.72;98475.66;1623007;87;25199;-83
2022/04/15 06:12:54;;;;;;;;;;;;;;;12.23;95.26;98476.73;1624501;88;20853;-84
2022/04/15 06:15:02;;;;;;;;;;;;;;;12.37;95.83;98481.32;1626387;87;25179;-83
2022/04/15 06:17:28;;;;;;;;;;;;;;;12.47;96.31;98490.16;1624469;87;21957;-85
2022/04/15 06:19:54;;;;;;;;;;;;;;;12.53;96.70;98491.00;1624563;88;21086;-86
2022/04/15 06:22:20;;;;;;;;;;;;;;;12.57;96.98;98491.13;1621191;87;20254;-87
2022/04/15 06:24:46;;;;;;;;;;;;;;;12.61;97.28;98496.95;1624404;88;20782;-87
2022/04/15 06:27:12;;;;;;;;;;;;;;;12.70;97.74;98499.37;1624099;88;24951;-86
2022/04/15 06:29:38;;;;;;;;;;;;;;;12.73;98.17;98497.33;1624487;88;20817;-84
2022/04/15 06:32:05;;;;;;;;;;;;;;;12.79;98.54;98498.64;1624155;87;20992;-87
2022/04/15 06:34:31;;;;;;;;;;;;;;;12.84;98.83;98507.84;1624152;88;24435;-84
2022/04/15 06:36:57;;;;;;;;;;;;;;;12.82;99.09;98509.73;1624517;88;20338;-85
2022/04/15 06:39:23;;;;;;;;;;;;;;;12.81;99.37;98504.63;1624566;88;20703;-85
2022/04/15 06:41:49;;;;;;;;;;;;;;;12.79;99.69;98516.55;1624438;88;22052;-86
2022/04/15 06:44:16;;;;;;;;;;;;;;;12.88;100.00;98516.30;1624621;88;20988;-86
2022/04/15 06:46:44;;;;;;;;;;;;;;;12.93;100.00;98516.30;1622970;88;26446;-86
2022/04/15 06:49:10;;;;;;;;;;;;;;;12.96;100.00;98519.19;1624588;88;20199;-85
2022/04/15 06:51:36;;;;;;;;;;;;;;;12.97;100.00;98512.98;1624593;88;20249;-86
2022/04/15 06:54:02;;;;;;;;;;;;;;;12.98;100.00;98511.52;1621839;87;22004;-86
2022/04/15 06:56:28;;;;;;;;;;;;;;;12.95;100.00;98519.66;1624469;88;21164;-84
2022/04/15 06:58:54;;;;;;;;;;;;;;;12.88;100.00;98527.66;1624374;88;20812;-83
2022/04/15 07:01:20;;;;;;;;;;;;;;;12.80;100.00;98523.48;1624454;88;20576;-84
2022/04/15 07:03:46;;;;;;;;;;;;;;;12.73;100.00;98524.91;1624447;88;24981;-84
2022/04/15 07:06:13;;;;;;;;;;;;;;;12.70;100.00;98525.62;1624182;88;20815;-86
2022/04/15 07:08:40;;;;;;;;;;;;;;;12.67;100.00;98523.22;1623844;88;26079;-84
2022/04/15 07:11:06;;;;;;;;;;;;;;;12.65;100.00;98520.73;1624287;87;25803;-83
2022/04/15 07:13:32;;;;;;;;;;;;;;;12.63;100.00;98520.00;1624492;88;20313;-85
2022/04/15 07:15:58;;;;;;;;;;;;;;;12.56;100.00;98524.05;1624513;88;20263;-85
2022/04/15 07:18:24;;;;;;;;;;;;;;;12.56;100.00;98522.73;1622327;88;20840;-86
2022/04/15 07:20:50;;;;;;;;;;;;;;;12.57;100.00;98530.97;1624637;88;21470;-84
2022/04/15 07:23:16;;;;;;;;;;;;;;;12.56;100.00;98531.45;1623473;87;20937;-83
2022/04/15 07:25:41;;;;;;;;;;;;;;;12.59;100.00;98529.08;1624424;88;20846;-85
2022/04/15 07:28:08;;;;;;;;;;;;;;;12.62;100.00;98530.14;1622692;88;20751;-84
2022/04/15 07:30:34;;;;;;;;;;;;;;;12.62;100.00;98536.70;1624130;88;22259;-86
2022/04/15 07:33:02;;;;;;;;;;;;;;;12.61;100.00;98538.13;1624524;88;21000;-83
2022/04/15 07:35:28;;;;;;;;;;;;;;;12.58;100.00;98543.16;1624276;88;25178;-83
2022/04/15 07:37:54;;;;;;;;;;;;;;;12.54;100.00;98539.94;1624460;87;20240;-83
2022/04/15 07:40:28;;;;;;;;;;;;;;;12.52;100.00;98541.83;1624483;88;21064;-85
2022/04/15 07:42:52;;;;;;;;;;;;;;;12.49;100.00;98545.98;1621910;87;22045;-84
2022/04/15 07:45:18;;;;;;;;;;;;;;;12.46;100.00;98546.23;1624201;88;21089;-86
2022/04/15 07:47:44;;;;;;;;;;;;;;;12.41;100.00;98548.37;1623811;87;20248;-85
2022/04/15 07:50:10;;;;;;;;;;;;;;;12.39;100.00;98547.63;1626139;88;20581;-86
2022/04/15 07:52:36;;;;;;;;;;;;;;;12.37;100.00;98556.12;1624039;88;25076;-85
2022/04/15 07:55:03;;;;;;;;;;;;;;;12.33;100.00;98553.34;1625037;88;22143;-83
2022/04/15 07:57:30;;;;;;;;;;;;;;;12.33;100.00;98559.09;1626424;88;26008;-83
2022/04/15 07:59:56;;;;;;;;;;;;;;;12.30;100.00;98561.45;1626703;88;24708;-85
2022/04/15 08:02:22;;;;;;;;;;;;;;;12.26;100.00;98560.49;1626396;88;20249;-84
2022/04/15 08:04:48;;;;;;;;;;;;;;;12.24;100.00;98565.01;1626489;88;24969;-84
2022/04/15 08:07:14;;;;;;;;;;;;;;;12.21;100.00;98567.40;1624857;88;22005;-85
2022/04/15 08:09:43;;;;;;;;;;;;;;;12.16;100.00;98563.78;1626526;88;21755;-84
2022/04/15 08:12:09;;;;;;;;;;;;;;;12.16;100.00;98562.47;1626398;88;24523;-87
2022/04/15 08:14:35;;;;;;;;;;;;;;;12.20;100.00;98567.50;1623418;88;20246;-87
2022/04/15 08:17:01;;;;;;;;;;;;;;;12.22;100.00;98566.92;1626058;88;25051;-87
2022/04/15 08:19:28;;;;;;;;;;;;;;;12.19;100.00;98567.98;1626382;88;21933;-85
2022/04/15 08:21:54;;;;;;;;;;;;;;;12.19;100.00;98570.60;1625322;88;26061;-85
2022/04/15 08:24:21;;;;;;;;;;;;;;;12.13;100.00;98564.49;1626402;88;20394;-87
2022/04/15 08:26:49;;;;;;;;;;;;;;;12.14;100.00;98572.26;1625241;88;20661;-84
2022/04/15 08:29:14;;;;;;;;;;;;;;;12.10;100.00;98566.89;1626249;88;25582;-86
2022/04/15 08:31:40;;;;;;;;;;;;;;;12.07;100.00;98566.25;1626530;88;20275;-86
2022/04/15 08:34:06;;;;;;;;;;;;;;;12.05;100.00;98568.17;1626097;88;26116;-85
2022/04/15 08:36:32;;;;;;;;;;;;;;;12.06;100.00;98569.35;1626554;87;24655;-84
2022/04/15 08:39:01;;;;;;;;;;;;;;;12.08;100.00;98575.33;1626732;88;20240;-86
2022/04/15 08:41:28;;;;;;;;;;;;;;;12.05;100.00;98573.42;1624881;88;25049;-84
2022/04/15 08:43:56;;;;;;;;;;;;;;;12.02;100.00;98574.94;1626472;87;21995;-84
2022/04/15 08:46:23;;;;;;;;;;;;;;;12.04;100.00;98571.74;1625808;88;26759;-86
2022/04/15 08:48:51;;;;;;;;;;;;;;;12.09;100.00;98572.23;1626101;88;25013;-87
2022/04/15 08:51:23;;;;;;;;;;;;;;;12.16;100.00;98574.27;1626445;88;20612;-85
2022/04/15 08:53:52;;;;;;;;;;;;;;;12.23;100.00;98575.14;1626358;88;25059;-84
2022/04/15 08:56:21;;;;;;;;;;;;;;;12.29;100.00;98580.77;1626145;87;22027;-84
2022/04/15 08:58:47;;;;;;;;;;;;;;;12.36;100.00;98580.69;1626365;87;26058;-84
2022/04/15 09:01:13;;;;;;;;;;;;;;;12.44;100.00;98578.30;1624721;88;24482;-84
2022/04/15 09:03:41;;;;;;;;;;;;;;;12.51;100.00;98582.16;1626439;88;20188;-84
2022/04/15 09:06:18;;;;;;;;;;;;;;;12.56;100.00;98585.73;1625672;87;24495;-84
2022/04/15 09:08:46;;;;;;;;;;;;;;;12.62;100.00;98579.19;1626161;87;22011;-84
2022/04/15 09:11:13;;;;;;;;;;;;;;;12.70;100.00;98575.05;1609439;88;26327;-84
2022/04/15 09:13:40;;;;;;;;;;;;;;;12.79;100.00;98575.64;1626285;88;24511;-84
2022/04/15 09:16:07;;;;;;;;;;;;;;;12.86;100.00;98580.80;1626495;87;20249;-84
2022/04/15 09:18:36;;;;;;;;;;;;;;;12.91;100.00;98580.44;1626425;88;25031;-83
2022/04/15 09:21:15;;;;;;;;;;;;;;;12.87;100.00;98579.81;1626501;88;22176;-86
2022/04/15 09:23:41;;;;;;;;;;;;;;;12.86;100.00;98579.48;1626475;88;25981;-84
2022/04/15 09:26:07;;;;;;;;;;;;;;;12.83;100.00;98578.39;1626555;87;20306;-85
2022/04/15 09:28:35;;;;;;;;;;;;;;;12.84;100.00;98574.81;1626573;88;20849;-88
2022/04/15 09:31:02;;;;;;;;;;;;;;;12.85;100.00;98569.09;1626643;88;25042;-88
2022/04/15 09:33:29;;;;;;;;;;;;;;;12.86;100.00;98575.55;1626455;88;22011;-87
2022/04/15 09:35:55;;;;;;;;;;;;;;;12.86;100.00;98574.70;1626218;88;26025;-85
2022/04/15 09:38:26;;;;;;;;;;;;;;;12.85;100.00;98576.49;1626393;88;24408;-87
2022/04/15 09:40:55;;;;;;;;;;;;;;;12.89;100.00;98579.70;1628121;87;20206;-87
2022/04/15 09:43:21;;;;;;;;;;;;;;;12.92;100.00;98568.51;1625638;88;25132;-87
2022/04/15 09:45:52;;;;;;;;;;;;;;;12.99;100.00;98576.73;1626127;88;20232;-86
2022/04/15 09:48:18;;;;;;;;;;;;;;;12.98;100.00;98577.20;1623955;88;26112;-86
2022/04/15 09:50:50;;;;;;;;;;;;;;;12.98;100.00;98570.63;1602886;88;20369;-84
2022/04/15 09:53:18;;;;;;;;;;;;;;;13.02;100.00;98564.69;1637378;87;20251;-83
2022/04/15 09:55:46;;;;;;;;;;;;;;;13.11;100.00;98561.81;1633962;86;25158;-85
2022/04/15 09:58:14;;;;;;;;;;;;;;;13.16;100.00;98555.74;1640253;87;21420;-83
2022/04/15 10:00:41;;;;;;;;;;;;;;;13.21;100.00;98557.05;1638479;87;25980;-87
2022/04/15 10:03:10;;;;;;;;;;;;;;;13.27;100.00;98547.85;1642393;87;24549;-84
2022/04/15 10:05:38;;;;;;;;;;;;;;;13.33;100.00;98546.05;1606561;88;20245;-84
2022/04/15 10:08:07;;;;;;;;;;;;;;;13.38;100.00;98546.05;1641057;86;24950;-86
2022/04/15 10:10:34;;;;;;;;;;;;;;;13.47;100.00;98544.50;1636819;86;22140;-85
2022/04/15 10:13:01;;;;;;;;;;;;;;;13.60;100.00;98545.17;1633412;87;26017;-83
2022/04/15 10:15:29;;;;;;;;;;;;;;;13.66;100.00;98544.68;1605782;88;24459;-84
2022/04/15 10:17:56;;;;;;;;;;;;;;;13.70;100.00;98546.09;1630430;86;20304;-84
2022/04/15 10:20:22;;;;;;;;;;;;;;;13.74;100.00;98543.59;1637803;87;24982;-84
2022/04/15 10:22:49;;;;;;;;;;;;;;;13.85;100.00;98552.41;1638265;87;22117;-85
2022/04/15 10:25:15;;;;;;;;;;;;;;;13.91;100.00;98547.97;1637156;87;26014;-84
2022/04/15 10:27:41;;;;;;;;;;;;;;;13.94;100.00;98548.55;1635550;86;24396;-84
2022/04/15 10:30:22;;;;;;;;;;;;;;;14.00;100.00;98552.47;1636381;86;20593;-84
2022/04/15 10:32:55;;;;;;;;;;;;;;;14.08;100.00;98544.77;1632089;86;24986;-87
2022/04/15 10:35:29;;;;;;;;;;;;;;;14.19;100.00;98548.19;1642466;86;22623;-86
2022/04/15 10:37:56;;;;;;;;;;;;;;;14.30;100.00;98535.45;1618459;88;26393;-85
2022/04/15 10:40:27;;;;;;;;;;;;;;;14.32;100.00;98540.11;1640303;87;25075;-85
2022/04/15 10:42:53;;;;;;;;;;;;;;;14.41;100.00;98543.31;1636411;87;20235;-87
2022/04/15 10:45:25;;;;;;;;;;;;;;;14.52;100.00;98534.03;1635198;87;20737;-88
2022/04/15 10:47:58;;;;;;;8.10;6.37;;;;;;;14.62;100.00;98534.92;1626215;87;21445;-86
2022/04/15 10:50:28;;;;;;;12.18;7.45;;;;;;;14.64;100.00;98532.17;1637903;87;28071;-83
2022/04/15 10:53:07;;;;;;;9.45;7.42;;;;;;;14.63;100.00;98521.27;1636860;86;28094;-86
2022/04/15 10:55:37;;;;;;;10.05;7.55;;;;;;;14.70;100.00;98519.80;1622384;86;28110;-86
2022/04/15 10:58:14;;;;;;;10.93;7.47;;;;;;;14.82;100.00;98512.17;1644561;85;28140;-85
2022/04/15 11:03:29;;;;;;;9.10;7.85;;;;;;;14.98;100.00;98517.78;1615809;87;28178;-85
2022/04/15 11:05:58;;;;;;;15.25;8.90;;;;;;;15.03;100.00;98514.75;1610257;88;28147;-86
2022/04/15 11:08:25;;;;;;;;;;;;;;;15.01;100.00;98512.72;1636756;86;28092;-86
2022/04/15 11:10:57;;;;;;;;;;;;;;;14.98;100.00;98510.36;1621941;88;24983;-86
2022/04/15 11:13:27;;;;;;;;;;;;;;;14.88;100.00;98513.45;1625310;88;22190;-86
2022/04/15 11:15:54;;;;;;;;;;;;;;;14.77;100.00;98513.53;1648985;86;26247;-84
2022/04/15 11:18:21;;;;;;;;;;;;;;;14.65;100.00;98514.92;1649414;86;25090;-85
2022/04/15 11:20:47;;;;;;;;;;;;;;;14.57;100.00;98516.05;1651349;86;20268;-85
2022/04/15 11:23:13;;;;;;;;;;;;;;;14.48;100.00;98517.31;1617448;87;20247;-88
2022/04/15 11:25:45;;;;;;;;;;;;;;;14.38;100.00;98515.11;1646988;86;21980;-85
2022/04/15 11:28:11;;;;;;;;;;;;;;;14.31;100.00;98508.64;1616857;87;26168;-87
2022/04/15 11:30:37;;;;;;;;;;;;;;;14.27;100.00;98508.55;1651470;86;25298;-88
2022/04/15 11:33:04;;;;;;;;;;;;;;;14.35;100.00;98506.09;1620644;88;20457;-85
2022/04/15 11:35:32;;;;;;;;;;;;;;;14.47;100.00;98505.94;1614794;86;25069;-85
2022/04/15 11:38:06;;;;;;;;;;;;;;;14.59;100.00;98504.07;1623457;88;22171;-87
2022/04/15 11:40:38;;;;;;;;;;;;;;;14.65;100.00;98508.82;1652450;86;26071;-85
2022/04/15 11:43:04;;;;;;;;;;;;;;;14.82;100.00;98503.42;1652378;86;24284;-85
2022/04/15 11:45:31;;;;;;;;;;;;;;;14.86;100.00;98496.92;1624271;88;20233;-85
2022/04/15 11:47:59;;;;;;;;;;;;;;;14.93;100.00;98496.75;1646249;86;24938;-86
2022/04/15 11:50:25;;;;;;;;;;;;;;;15.01;100.00;98495.11;1621613;88;21946;-84
2022/04/15 11:52:50;;;;;;;;;;;;;;;15.10;100.00;98494.80;1626533;88;26025;-84
2022/04/15 11:55:16;;;;;;;;;;;;;;;15.21;100.00;98497.81;1624275;87;20258;-85
2022/04/15 11:57:42;;;;;;;;;;;;;;;15.30;100.00;98492.56;1624110;88;20219;-85
2022/04/15 12:00:10;;;;;;;;;;;;;;;15.31;100.00;98493.40;1627008;87;20818;-87
2022/04/15 12:02:38;;;;;;;;;;;;;;;15.40;100.00;98493.41;1626501;88;22724;-85
2022/04/15 12:05:04;;;;;;;;;;;;;;;15.50;100.00;98490.30;1625726;87;26023;-87
2022/04/15 12:07:31;;;;;;;;;;;;;;;15.61;100.00;98485.91;1626428;88;24499;-87
2022/04/15 12:10:05;;;;;;;;;;;;;;;15.70;100.00;98485.94;1600501;88;20219;-84
2022/04/15 12:12:35;;;;;;;;;;;;;;;15.76;100.00;98484.55;1626514;88;25069;-85
2022/04/15 12:15:01;;;;;;;;;;;;;;;15.73;100.00;98479.05;1626503;88;22082;-88
2022/04/15 12:17:31;;;;;;;;;;;;;;;15.69;100.00;98480.30;1617606;88;26172;-86
2022/04/15 12:19:57;;;;;;;;;;;;;;;15.70;100.00;98476.70;1626354;88;24531;-86
2022/04/15 12:22:26;;;;;;;;;;;;;;;15.67;100.00;98467.73;1623985;88;20475;-85
2022/04/15 12:24:54;;;;;;;;;;;;;;;15.76;100.00;98464.76;1626326;88;24965;-86
2022/04/15 12:27:23;;;;;;;;;;;;;;;15.89;100.00;98460.02;1622095;88;22055;-84
2022/04/15 12:29:55;;;;;;;;;;;;;;;15.97;100.00;98457.53;1626642;87;26015;-88
2022/04/15 12:32:34;;;;;;;;;;;;;;;16.05;100.00;98455.48;1626227;88;24470;-84
2022/04/15 12:35:07;;;;;;;;;;;;;;;16.04;100.00;98455.97;1626155;88;20240;-84
2022/04/15 12:37:34;;;;;;;;;;;;;;;16.04;100.00;98455.16;1626607;87;25062;-84
2022/04/15 12:40:02;;;;;;;;;;;;;;;16.05;100.00;98448.41;1626067;88;22127;-87
2022/04/15 12:42:29;;;;;;;;;;;;;;;16.19;100.00;98455.06;1624794;88;26730;-86